Time;durP1;ratioP1;P1;durP2;ratioP2;P2;SDS_P1;SDS_P2;PMS_P1;PMS_P2;Temp;Humidity;BMP_temperature;BMP_pressure;BME280_temperature;BME280_humidity;BME280_pressure;Samples;Min_cycle;Max_cycle;Signal;HPM_P1;HPM_P2
2023/07/31 00:02:17;;;;;;;;;;;;;;;;;;5035017;28;20329;-26
2023/07/31 00:04:43;;;;;;;;;;;;;;;;;;5034606;28;19921;-25
2023/07/31 00:07:09;;;;;;;;;;;;;;;;;;5035027;28;20374;-25
2023/07/31 00:09:35;;;;;;;;;;;;;;;;;;5034698;28;19917;-25
2023/07/31 00:12:01;;;;;;;;;;;;;;;;;;5034898;28;20256;-27
2023/07/31 00:14:27;;;;;;;;;;;;;;;;;;5034705;28;19915;-27
2023/07/31 00:16:52;;;;;;;;;;;;;;;;;;5034678;28;19909;-26
2023/07/31 00:19:18;;;;;;;;;;;;;;;;;;5034619;28;19991;-23
2023/07/31 00:21:44;;;;;;;;;;;;;;;;;;5034609;28;19963;-25
2023/07/31 00:24:10;;;;;;;;;;;;;;;;;;5034424;28;19910;-28
2023/07/31 00:26:36;;;;;;;;;;;;;;;;;;5034787;28;19920;-24
2023/07/31 00:29:02;;;;;;;;;;;;;;;;;;5034501;28;19975;-25
2023/07/31 00:31:28;;;;;;;;;;;;;;;;;;5034469;28;19914;-24
2023/07/31 00:33:54;;;;;;;;;;;;;;;;;;5034429;28;19951;-28
2023/07/31 00:36:20;;;;;;;;;;;;;;;;;;5034475;28;19909;-22
2023/07/31 00:38:46;;;;;;;;;;;;;;;;;;5034356;28;19974;-25
2023/07/31 00:41:12;;;;;;;;;;;;;;;;;;5034361;28;20015;-28
2023/07/31 00:43:38;;;;;;;;;;;;;;;;;;5034567;28;19945;-30
2023/07/31 00:46:04;;;;;;;;;;;;;;;;;;5034362;28;20122;-29
2023/07/31 00:48:30;;;;;;;;;;;;;;;;;;5034286;28;19955;-22
2023/07/31 00:50:56;;;;;;;;;;;;;;;;;;5034349;28;19945;-25
2023/07/31 00:53:22;;;;;;;;;;;;;;;;;;5034316;28;19991;-27
2023/07/31 00:55:48;;;;;;;;;;;;;;;;;;5034245;28;19909;-22
2023/07/31 00:58:14;;;;;;;;;;;;;;;;;;5034539;28;20004;-23
2023/07/31 01:00:40;;;;;;;;;;;;;;;;;;5034649;28;19920;-24
2023/07/31 01:03:06;;;;;;;;;;;;;;;;;;5038089;28;20287;-22
2023/07/31 01:05:32;;;;;;;;;;;;;;;;;;5038055;28;20391;-26
2023/07/31 01:07:58;;;;;;;;;;;;;;;;;;5038206;28;19913;-31
2023/07/31 01:10:24;;;;;;;;;;;;;;;;;;5037917;28;20467;-28
2023/07/31 01:12:50;;;;;;;;;;;;;;;;;;5037853;28;20280;-22
2023/07/31 01:15:17;;;;;;;;;;;;;;;;;;5037907;28;20327;-25
2023/07/31 01:17:43;;;;;;;;;;;;;;;;;;5036869;28;19911;-25
2023/07/31 01:20:09;;;;;;;;;;;;;;;;;;5037501;28;19924;-27
2023/07/31 01:22:35;;;;;;;;;;;;;;;;;;5037964;28;19909;-25
2023/07/31 01:25:01;;;;;;;;;;;;;;;;;;5037706;28;20267;-25
2023/07/31 01:27:27;;;;;;;;;;;;;;;;;;5037832;28;19936;-25
2023/07/31 01:29:53;;;;;;;;;;;;;;;;;;5038061;28;19931;-27
2023/07/31 01:32:19;;;;;;;;;;;;;;;;;;5037532;28;20224;-29
2023/07/31 01:34:45;;;;;;;;;;;;;;;;;;5037760;28;19913;-32
2023/07/31 01:37:11;;;;;;;;;;;;;;;;;;5037755;28;20194;-29
2023/07/31 01:39:37;;;;;;;;;;;;;;;;;;5037411;28;20004;-25
2023/07/31 01:42:03;;;;;;;;;;;;;;;;;;5037573;28;19967;-32
2023/07/31 01:44:29;;;;;;;;;;;;;;;;;;5037313;28;20000;-22
2023/07/31 01:46:55;;;;;;;;;;;;;;;;;;5037366;28;20325;-26
2023/07/31 01:49:21;;;;;;;;;;;;;;;;;;5037215;28;19981;-24
2023/07/31 01:51:47;;;;;;;;;;;;;;;;;;5037410;28;19913;-22
2023/07/31 01:54:13;;;;;;;;;;;;;;;;;;5037360;28;19909;-24
2023/07/31 01:56:38;;;;;;;;;;;;;;;;;;5037140;28;19913;-24
2023/07/31 01:59:04;;;;;;;;;;;;;;;;;;5036107;28;19909;-27
2023/07/31 02:01:30;;;;;;;;;;;;;;;;;;5037038;28;20018;-26
2023/07/31 02:03:57;;;;;;;;;;;;;;;;;;5036722;28;20363;-26
2023/07/31 02:06:23;;;;;;;;;;;;;;;;;;5036987;28;19910;-24
2023/07/31 02:08:49;;;;;;;;;;;;;;;;;;5036856;28;20310;-26
2023/07/31 02:11:15;;;;;;;;;;;;;;;;;;5036863;28;19920;-22
2023/07/31 02:13:41;;;;;;;;;;;;;;;;;;5036800;28;20059;-25
2023/07/31 02:16:07;;;;;;;;;;;;;;;;;;5036802;28;19910;-24
2023/07/31 02:18:33;;;;;;;;;;;;;;;;;;5036717;28;20319;-26
2023/07/31 02:20:59;;;;;;;;;;;;;;;;;;5036941;28;19924;-25
2023/07/31 02:23:25;;;;;;;;;;;;;;;;;;5035546;28;19916;-25
2023/07/31 02:25:51;;;;;;;;;;;;;;;;;;5036842;28;19909;-27
2023/07/31 02:28:17;;;;;;;;;;;;;;;;;;5036409;28;19988;-22
2023/07/31 02:30:43;;;;;;;;;;;;;;;;;;5036984;28;19987;-26
2023/07/31 02:33:09;;;;;;;;;;;;;;;;;;5036358;28;20267;-30
2023/07/31 02:35:35;;;;;;;;;;;;;;;;;;5036449;28;19966;-25
2023/07/31 02:38:01;;;;;;;;;;;;;;;;;;5036576;28;19916;-27
2023/07/31 02:40:26;;;;;;;;;;;;;;;;;;5036305;28;19909;-27
2023/07/31 02:42:52;;;;;;;;;;;;;;;;;;5036211;28;20000;-30
2023/07/31 02:45:18;;;;;;;;;;;;;;;;;;5036203;28;19909;-25
2023/07/31 02:47:44;;;;;;;;;;;;;;;;;;5036087;28;19909;-28
2023/07/31 02:50:10;;;;;;;;;;;;;;;;;;5036341;28;19917;-24
2023/07/31 02:52:36;;;;;;;;;;;;;;;;;;5036233;28;20305;-25
2023/07/31 02:55:02;;;;;;;;;;;;;;;;;;5035971;28;19961;-24
2023/07/31 02:57:28;;;;;;;;;;;;;;;;;;5035906;28;19921;-23
2023/07/31 02:59:54;;;;;;;;;;;;;;;;;;5036220;28;19909;-26
2023/07/31 03:02:20;;;;;;;;;;;;;;;;;;5035795;28;19915;-22
2023/07/31 03:04:46;;;;;;;;;;;;;;;;;;5035731;28;19940;-26
2023/07/31 03:07:12;;;;;;;;;;;;;;;;;;5036072;28;19909;-22
2023/07/31 03:09:38;;;;;;;;;;;;;;;;;;5034661;28;19913;-28
2023/07/31 03:12:04;;;;;;;;;;;;;;;;;;5035554;28;20264;-27
2023/07/31 03:14:30;;;;;;;;;;;;;;;;;;5035590;28;19943;-21
2023/07/31 03:16:56;;;;;;;;;;;;;;;;;;5035513;28;19909;-28
2023/07/31 03:19:22;;;;;;;;;;;;;;;;;;5035518;28;19940;-30
2023/07/31 03:21:48;;;;;;;;;;;;;;;;;;5035724;28;19909;-26
2023/07/31 03:24:14;;;;;;;;;;;;;;;;;;5034876;28;19909;-28
2023/07/31 03:26:41;;;;;;;;;;;;;;;;;;5035396;28;20261;-29
2023/07/31 03:29:07;;;;;;;;;;;;;;;;;;5035226;28;19924;-23
2023/07/31 03:31:33;;;;;;;;;;;;;;;;;;5035289;28;19909;-27
2023/07/31 03:33:59;;;;;;;;;;;;;;;;;;5035182;28;19913;-26
2023/07/31 03:36:25;;;;;;;;;;;;;;;;;;5035267;28;19967;-28
2023/07/31 03:38:51;;;;;;;;;;;;;;;;;;5035167;28;19920;-28
2023/07/31 03:41:17;;;;;;;;;;;;;;;;;;5035101;28;19909;-28
2023/07/31 03:43:43;;;;;;;;;;;;;;;;;;5035068;28;19909;-31
2023/07/31 03:46:09;;;;;;;;;;;;;;;;;;5035261;28;20332;-31
2023/07/31 03:48:35;;;;;;;;;;;;;;;;;;5035216;28;19913;-22
2023/07/31 03:51:01;;;;;;;;;;;;;;;;;;5034808;28;19912;-31
2023/07/31 03:53:27;;;;;;;;;;;;;;;;;;5035039;28;20247;-20
2023/07/31 03:55:53;;;;;;;;;;;;;;;;;;5035025;28;20340;-25
2023/07/31 03:58:19;;;;;;;;;;;;;;;;;;5034819;28;19967;-29
2023/07/31 04:03:21;;;;;;;;;;;;;;;;;;5367200;22;20033;-23
2023/07/31 04:05:47;;;;;;;;;;;;;;;;;;5054549;28;19996;-22
2023/07/31 04:08:13;;;;;;;;;;;;;;;;;;5054893;28;19920;-20
2023/07/31 04:10:39;;;;;;;;;;;;;;;;;;5053417;28;20350;-20
2023/07/31 04:13:05;;;;;;;;;;;;;;;;;;5054489;28;19908;-21
2023/07/31 04:15:30;;;;;;;;;;;;;;;;;;5054332;28;19932;-20
2023/07/31 04:17:56;;;;;;;;;;;;;;;;;;5054652;28;20302;-22
2023/07/31 04:20:22;;;;;;;;;;;;;;;;;;5054337;28;20274;-21
2023/07/31 04:22:48;;;;;;;;;;;;;;;;;;5054488;28;19924;-21
2023/07/31 04:25:14;;;;;;;;;;;;;;;;;;5054207;28;20008;-22
2023/07/31 04:27:40;;;;;;;;;;;;;;;;;;5036548;28;20358;-22
2023/07/31 04:30:06;;;;;;;;;;;;;;;;;;5036667;28;20237;-21
2023/07/31 04:32:32;;;;;;;;;;;;;;;;;;5054214;28;19944;-20
2023/07/31 04:34:58;;;;;;;;;;;;;;;;;;5054507;28;19913;-21
2023/07/31 04:37:24;;;;;;;;;;;;;;;;;;5057399;28;19909;-21
2023/07/31 04:39:50;;;;;;;;;;;;;;;;;;5040729;28;19909;-21
2023/07/31 04:42:16;;;;;;;;;;;;;;;;;;5058515;28;20007;-22
2023/07/31 04:44:42;;;;;;;;;;;;;;;;;;5058389;28;19920;-20
2023/07/31 04:47:08;;;;;;;;;;;;;;;;;;5058220;28;19969;-21
2023/07/31 04:49:34;;;;;;;;;;;;;;;;;;5058074;28;19913;-22
2023/07/31 04:52:00;;;;;;;;;;;;;;;;;;5057968;28;19919;-21
2023/07/31 04:54:26;;;;;;;;;;;;;;;;;;5058212;28;19916;-20
2023/07/31 04:56:52;;;;;;;;;;;;;;;;;;5057978;28;19932;-21
2023/07/31 04:59:18;;;;;;;;;;;;;;;;;;5058262;28;20327;-20
2023/07/31 05:01:45;;;;;;;;;;;;;;;;;;5057904;28;19915;-23
2023/07/31 05:04:11;;;;;;;;;;;;;;;;;;5036848;28;19944;-20
2023/07/31 05:06:37;;;;;;;;;;;;;;;;;;5038107;28;19909;-21
2023/07/31 05:09:02;;;;;;;;;;;;;;;;;;5037826;28;19917;-21
2023/07/31 05:11:28;;;;;;;;;;;;;;;;;;5038101;28;19909;-20
2023/07/31 05:13:54;;;;;;;;;;;;;;;;;;5037607;28;20344;-22
2023/07/31 05:16:20;;;;;;;;;;;;;;;;;;5037584;28;19909;-21
2023/07/31 05:18:46;;;;;;;;;;;;;;;;;;5037476;28;19920;-20
2023/07/31 05:21:12;;;;;;;;;;;;;;;;;;5037439;28;19924;-22
2023/07/31 05:23:38;;;;;;;;;;;;;;;;;;5037594;28;19909;-21
2023/07/31 05:26:04;;;;;;;;;;;;;;;;;;5037545;28;20061;-22
2023/07/31 05:28:30;;;;;;;;;;;;;;;;;;5037360;28;19924;-21
2023/07/31 05:30:56;;;;;;;;;;;;;;;;;;5036389;28;19909;-20
2023/07/31 05:33:22;;;;;;;;;;;;;;;;;;5037203;28;20363;-21
2023/07/31 05:35:48;;;;;;;;;;;;;;;;;;5037319;28;19909;-25
2023/07/31 05:38:14;;;;;;;;;;;;;;;;;;5037444;28;19999;-23
2023/07/31 05:40:40;;;;;;;;;;;;;;;;;;5037463;28;19909;-21
2023/07/31 05:43:08;;;;;;;;;;;;;;;;;;5037164;28;19915;-20
2023/07/31 05:45:34;;;;;;;;;;;;;;;;;;5036891;28;19909;-21
2023/07/31 05:48:00;;;;;;;;;;;;;;;;;;5035277;28;19932;-21
2023/07/31 05:50:26;;;;;;;;;;;;;;;;;;5036086;28;19959;-20
2023/07/31 05:52:52;;;;;;;;;;;;;;;;;;5036846;28;19913;-23
2023/07/31 05:55:18;;;;;;;;;;;;;;;;;;5037009;28;20255;-21
2023/07/31 05:57:45;;;;;;;;;;;;;;;;;;5036736;28;20331;-21
2023/07/31 06:00:11;;;;;;;;;;;;;;;;;;5036771;28;20339;-21
2023/07/31 06:02:37;;;;;;;;;;;;;;;;;;5039386;28;19921;-21
2023/07/31 06:05:04;;;;;;;;;;;;;;;;;;5056754;28;19915;-20
2023/07/31 06:07:29;;;;;;;;;;;;;;;;;;5056511;28;19982;-21
2023/07/31 06:09:57;;;;;;;;;;;;;;;;;;5056728;28;19920;-24
2023/07/31 06:12:24;;;;;;;;;;;;;;;;;;5056368;28;19909;-22
2023/07/31 06:14:50;;;;;;;;;;;;;;;;;;5056119;28;19909;-22
2023/07/31 06:17:16;;;;;;;;;;;;;;;;;;5037944;28;19919;-22
2023/07/31 06:19:42;;;;;;;;;;;;;;;;;;5038125;28;19994;-21
2023/07/31 06:22:08;;;;;;;;;;;;;;;;;;5055953;28;19912;-20
2023/07/31 06:24:34;;;;;;;;;;;;;;;;;;5055829;28;20255;-20
2023/07/31 06:27:02;;;;;;;;;;;;;;;;;;5055928;28;19966;-22
2023/07/31 06:29:28;;;;;;;;;;;;;;;;;;5055630;28;19913;-21
2023/07/31 06:31:54;;;;;;;;;;;;;;;;;;5055608;28;19909;-22
2023/07/31 06:34:20;;;;;;;;;;;;;;;;;;5055523;28;19909;-22
2023/07/31 06:36:46;;;;;;;;;;;;;;;;;;5055948;28;19913;-20
2023/07/31 06:39:13;;;;;;;;;;;;;;;;;;5055821;28;19940;-20
2023/07/31 06:41:39;;;;;;;;;;;;;;;;;;5056214;28;19944;-21
2023/07/31 06:44:05;;;;;;;;;;;;;;;;;;5056161;28;19909;-21
2023/07/31 06:46:31;;;;;;;;;;;;;;;;;;5056060;28;20453;-21
2023/07/31 06:48:57;;;;;;;;;;;;;;;;;;5056229;28;19948;-22
2023/07/31 06:51:23;;;;;;;;;;;;;;;;;;5055843;28;20379;-20
2023/07/31 06:53:49;;;;;;;;;;;;;;;;;;5055682;28;19967;-21
2023/07/31 06:56:15;;;;;;;;;;;;;;;;;;5055612;28;19909;-21
2023/07/31 06:58:41;;;;;;;;;;;;;;;;;;5054771;28;19962;-22
2023/07/31 07:01:07;;;;;;;;;;;;;;;;;;5055610;28;20348;-20
2023/07/31 07:03:33;;;;;;;;;;;;;;;;;;5055330;28;19925;-20
2023/07/31 07:05:59;;;;;;;;;;;;;;;;;;5055864;28;20343;-23
2023/07/31 07:08:25;;;;;;;;;;;;;;;;;;5055536;28;19982;-21
2023/07/31 07:10:51;;;;;;;;;;;;;;;;;;5055450;28;19992;-22
2023/07/31 07:13:18;;;;;;;;;;;;;;;;;;5055579;28;20282;-20
2023/07/31 07:15:44;;;;;;;;;;;;;;;;;;5055441;28;20019;-20
2023/07/31 07:18:10;;;;;;;;;;;;;;;;;;5037890;28;19920;-20
2023/07/31 07:20:36;;;;;;;;;;;;;;;;;;5055426;28;20401;-23
2023/07/31 07:23:02;;;;;;;;;;;;;;;;;;5055000;28;19913;-22
2023/07/31 07:25:28;;;;;;;;;;;;;;;;;;5037746;28;19909;-20
2023/07/31 07:27:54;;;;;;;;;;;;;;;;;;5037585;28;20413;-20
2023/07/31 07:30:20;;;;;;;;;;;;;;;;;;5037384;28;20058;-22
2023/07/31 07:32:46;;;;;;;;;;;;;;;;;;5054886;28;19971;-21
2023/07/31 07:35:12;;;;;;;;;;;;;;;;;;5055046;28;19913;-21
2023/07/31 07:37:38;;;;;;;;;;;;;;;;;;5055025;28;19917;-21
2023/07/31 07:40:05;;;;;;;;;;;;;;;;;;5037181;28;19977;-20
2023/07/31 07:42:31;;;;;;;;;;;;;;;;;;5054662;28;19908;-21
2023/07/31 07:44:57;;;;;;;;;;;;;;;;;;5037166;28;19909;-23
2023/07/31 07:47:23;;;;;;;;;;;;;;;;;;5054586;28;20026;-22
2023/07/31 07:49:49;;;;;;;;;;;;;;;;;;5054770;28;20327;-20
2023/07/31 07:52:15;;;;;;;;;;;;;;;;;;5054473;28;20306;-19
2023/07/31 07:54:41;;;;;;;;;;;;;;;;;;5036996;28;19931;-24
2023/07/31 07:57:07;;;;;;;;;;;;;;;;;;5036690;28;19909;-22
2023/07/31 07:59:33;;;;;;;;;;;;;;;;;;5054872;28;20231;-21
2023/07/31 08:01:59;;;;;;;;;;;;;;;;;;5054380;28;19916;-20
2023/07/31 08:04:25;;;;;;;;;;;;;;;;;;5054394;28;19921;-21
2023/07/31 08:06:51;;;;;;;;;;;;;;;;;;5054584;28;19970;-22
2023/07/31 08:09:16;;;;;;;;;;;;;;;;;;5053994;28;19912;-22
2023/07/31 08:11:42;;;;;;;;;;;;;;;;;;5054267;28;19913;-21
2023/07/31 08:14:08;;;;;;;;;;;;;;;;;;5053995;28;20358;-20
2023/07/31 08:16:34;;;;;;;;;;;;;;;;;;5054149;28;20311;-21
2023/07/31 08:19:00;;;;;;;;;;;;;;;;;;5054295;28;19908;-20
2023/07/31 08:21:26;;;;;;;;;;;;;;;;;;5054458;28;19909;-22
2023/07/31 08:23:52;;;;;;;;;;;;;;;;;;5054041;28;19963;-23
2023/07/31 08:26:18;;;;;;;;;;;;;;;;;;5053981;28;20007;-21
2023/07/31 08:28:44;;;;;;;;;;;;;;;;;;5053882;28;19912;-21
2023/07/31 08:31:10;;;;;;;;;;;;;;;;;;5053887;28;19966;-23
2023/07/31 08:33:36;;;;;;;;;;;;;;;;;;5053836;28;19916;-21
2023/07/31 08:36:02;;;;;;;;;;;;;;;;;;5036195;28;20010;-20
2023/07/31 08:38:29;;;;;;;;;;;;;;;;;;5053761;28;19909;-21
2023/07/31 08:40:55;;;;;;;;;;;;;;;;;;5053965;28;19908;-20
2023/07/31 08:43:21;;;;;;;;;;;;;;;;;;5053994;28;20004;-20
2023/07/31 08:45:47;;;;;;;;;;;;;;;;;;5053556;28;20362;-22
2023/07/31 08:48:13;;;;;;;;;;;;;;;;;;5035579;28;19952;-22
2023/07/31 08:50:39;;;;;;;;;;;;;;;;;;5053327;28;19908;-21
2023/07/31 08:53:05;;;;;;;;;;;;;;;;;;5053528;28;19909;-23
2023/07/31 08:55:31;;;;;;;;;;;;;;;;;;5053587;28;20340;-21
2023/07/31 08:57:57;;;;;;;;;;;;;;;;;;5053291;28;20287;-23
2023/07/31 09:00:24;;;;;;;;;;;;;;;;;;5035667;28;19909;-21
2023/07/31 09:02:50;;;;;;;;;;;;;;;;;;5052884;28;19995;-21
2023/07/31 09:05:16;;;;;;;;;;;;;;;;;;5053270;28;19971;-21
2023/07/31 09:07:42;;;;;;;;;;;;;;;;;;5053137;28;20126;-20
2023/07/31 09:10:08;;;;;;;;;;;;;;;;;;5053062;28;19913;-23
2023/07/31 09:12:33;;;;;;;;;;;;;;;;;;5053016;28;20256;-22
2023/07/31 09:14:59;;;;;;;;;;;;;;;;;;5053312;28;20359;-22
2023/07/31 09:17:25;;;;;;;;;;;;;;;;;;5052964;28;19916;-21
2023/07/31 09:19:51;;;;;;;;;;;;;;;;;;5053278;28;19915;-21
2023/07/31 09:22:17;;;;;;;;;;;;;;;;;;5054700;28;20327;-21
2023/07/31 09:24:43;;;;;;;;;;;;;;;;;;5057018;28;19909;-21
2023/07/31 09:27:09;;;;;;;;;;;;;;;;;;5057204;28;19909;-20
2023/07/31 09:29:35;;;;;;;;;;;;;;;;;;5057330;28;19912;-20
2023/07/31 09:32:01;;;;;;;;;;;;;;;;;;5057149;28;19974;-20
2023/07/31 09:34:27;;;;;;;;;;;;;;;;;;5057099;28;20007;-22
2023/07/31 09:36:53;;;;;;;;;;;;;;;;;;5056991;28;19940;-22
2023/07/31 09:39:22;;;;;;;;;;;;;;;;;;5057225;28;19909;-22
2023/07/31 09:41:48;;;;;;;;;;;;;;;;;;5057334;28;19909;-22
2023/07/31 09:44:14;;;;;;;;;;;;;;;;;;5057478;28;19947;-21
2023/07/31 09:46:40;;;;;;;;;;;;;;;;;;5056646;28;20012;-21
2023/07/31 09:49:06;;;;;;;;;;;;;;;;;;5057117;28;19966;-20
2023/07/31 09:51:37;;;;;;;;;;;;;;;;;;5056689;28;20402;-21
2023/07/31 09:54:03;;;;;;;;;;;;;;;;;;5056484;28;19916;-20
2023/07/31 09:56:29;;;;;;;;;;;;;;;;;;5038985;28;20371;-22
2023/07/31 09:58:55;;;;;;;;;;;;;;;;;;5056782;28;19909;-22
2023/07/31 10:01:21;;;;;;;;;;;;;;;;;;5056337;28;19915;-20
2023/07/31 10:03:47;;;;;;;;;;;;;;;;;;5056237;28;19972;-21
2023/07/31 10:06:15;;;;;;;;;;;;;;;;;;5056238;28;19913;-21
2023/07/31 10:08:41;;;;;;;;;;;;;;;;;;5056470;28;19920;-20
2023/07/31 10:11:07;;;;;;;;;;;;;;;;;;5056542;28;19909;-20
2023/07/31 10:13:33;;;;;;;;;;;;;;;;;;5056379;28;20327;-21
2023/07/31 10:16:00;;;;;;;;;;;;;;;;;;5038662;28;20010;-21
2023/07/31 10:18:26;;;;;;;;;;;;;;;;;;5056041;28;20285;-23
2023/07/31 10:20:52;;;;;;;;;;;;;;;;;;5056576;28;19915;-21
2023/07/31 10:23:18;;;;;;;;;;;;;;;;;;5056161;28;19944;-21
2023/07/31 10:25:44;;;;;;;;;;;;;;;;;;5056215;28;19916;-20
2023/07/31 10:28:10;;;;;;;;;;;;;;;;;;5055806;28;19917;-20
2023/07/31 10:30:38;;;;;;;;;;;;;;;;;;5055547;28;19908;-23
2023/07/31 10:33:04;;;;;;;;;;;;;;;;;;5055323;28;19996;-21
2023/07/31 10:35:30;;;;;;;;;;;;;;;;;;5055418;28;19956;-20
2023/07/31 10:37:56;;;;;;;;;;;;;;;;;;5055851;28;19909;-21
2023/07/31 10:40:22;;;;;;;;;;;;;;;;;;5055722;28;19949;-20
2023/07/31 10:42:48;;;;;;;;;;;;;;;;;;5038041;28;19916;-21
2023/07/31 10:45:14;;;;;;;;;;;;;;;;;;5055829;28;19996;-22
2023/07/31 10:47:40;;;;;;;;;;;;;;;;;;5055785;28;19952;-21
2023/07/31 10:50:06;;;;;;;;;;;;;;;;;;5037908;28;20031;-23
2023/07/31 10:52:32;;;;;;;;;;;;;;;;;;5037855;28;20034;-20
2023/07/31 10:54:58;;;;;;;;;;;;;;;;;;5055858;28;19919;-21
2023/07/31 10:57:25;;;;;;;;;;;;;;;;;;5055575;28;20302;-21
2023/07/31 10:59:51;;;;;;;;;;;;;;;;;;5055198;28;20211;-22
2023/07/31 11:02:17;;;;;;;;;;;;;;;;;;5054477;28;20003;-22
2023/07/31 11:04:43;;;;;;;;;;;;;;;;;;5037430;28;19975;-21
2023/07/31 11:07:10;;;;;;;;;;;;;;;;;;5037040;28;20318;-21
2023/07/31 11:09:36;;;;;;;;;;;;;;;;;;5054684;28;19923;-21
2023/07/31 11:12:02;;;;;;;;;;;;;;;;;;5036910;28;19913;-20
2023/07/31 11:14:28;;;;;;;;;;;;;;;;;;5054839;28;19909;-21
2023/07/31 11:16:54;;;;;;;;;;;;;;;;;;5054435;28;19981;-21
2023/07/31 11:19:20;;;;;;;;;;;;;;;;;;5054478;28;19923;-20
2023/07/31 11:21:46;;;;;;;;;;;;;;;;;;5036724;28;20006;-20
2023/07/31 11:24:12;;;;;;;;;;;;;;;;;;5054623;28;19945;-21
2023/07/31 11:26:38;;;;;;;;;;;;;;;;;;5055137;28;20454;-21
2023/07/31 11:29:04;;;;;;;;;;;;;;;;;;5054906;28;19920;-22
2023/07/31 11:31:30;;;;;;;;;;;;;;;;;;5054694;28;19992;-21
2023/07/31 11:33:58;;;;;;;;;;;;;;;;;;5036709;28;21254;-22
2023/07/31 11:36:24;;;;;;;;;;;;;;;;;;5054695;28;19959;-21
2023/07/31 11:38:50;;;;;;;;;;;;;;;;;;5054641;28;19911;-21
2023/07/31 11:41:16;;;;;;;;;;;;;;;;;;5054910;28;20326;-21
2023/07/31 11:43:42;;;;;;;;;;;;;;;;;;5054759;28;19909;-24
2023/07/31 11:46:08;;;;;;;;;;;;;;;;;;5054175;28;20294;-23
2023/07/31 11:48:35;;;;;;;;;;;;;;;;;;5054859;28;20240;-21
2023/07/31 11:51:01;;;;;;;;;;;;;;;;;;5054664;28;19909;-21
2023/07/31 11:53:27;;;;;;;;;;;;;;;;;;5054496;28;19944;-21
2023/07/31 11:55:53;;;;;;;;;;;;;;;;;;5054264;28;19923;-21
2023/07/31 11:58:19;;;;;;;;;;;;;;;;;;5036990;28;19909;-23
2023/07/31 12:00:49;;;;;;;;;;;;;;;;;;5036789;28;19917;-21
2023/07/31 12:03:15;;;;;;;;;;;;;;;;;;5054391;28;19921;-20
2023/07/31 12:05:41;;;;;;;;;;;;;;;;;;5054677;28;19936;-22
2023/07/31 12:08:06;;;;;;;;;;;;;;;;;;5054469;28;19948;-21
2023/07/31 12:10:32;;;;;;;;;;;;;;;;;;5054210;28;19917;-22
2023/07/31 12:12:59;;;;;;;;;;;;;;;;;;5054017;28;19909;-21
2023/07/31 12:15:24;;;;;;;;;;;;;;;;;;5036547;28;19919;-21
2023/07/31 12:17:50;;;;;;;;;;;;;;;;;;5054274;28;19909;-20
2023/07/31 12:20:16;;;;;;;;;;;;;;;;;;5054524;28;19916;-21
2023/07/31 12:22:42;;;;;;;;;;;;;;;;;;5054419;28;20228;-22
2023/07/31 12:25:08;;;;;;;;;;;;;;;;;;5054152;28;20274;-21
2023/07/31 12:27:34;;;;;;;;;;;;;;;;;;5054071;28;20002;-20
2023/07/31 12:30:00;;;;;;;;;;;;;;;;;;5054271;28;19919;-20
2023/07/31 12:32:28;;;;;;;;;;;;;;;;;;5053958;28;19931;-22
2023/07/31 12:34:54;;;;;;;;;;;;;;;;;;5054424;28;20283;-22
2023/07/31 12:37:20;;;;;;;;;;;;;;;;;;5053987;28;19967;-21
2023/07/31 12:39:46;;;;;;;;;;;;;;;;;;5053945;28;19939;-21
2023/07/31 12:42:12;;;;;;;;;;;;;;;;;;5036272;28;19960;-22
2023/07/31 12:44:38;;;;;;;;;;;;;;;;;;5053847;28;20015;-21
2023/07/31 12:47:04;;;;;;;;;;;;;;;;;;5053905;28;19999;-21
2023/07/31 12:49:30;;;;;;;;;;;;;;;;;;5053569;28;20003;-23
2023/07/31 12:51:56;;;;;;;;;;;;;;;;;;5053633;28;20279;-21
2023/07/31 12:54:22;;;;;;;;;;;;;;;;;;5053649;28;20052;-22
2023/07/31 12:56:48;;;;;;;;;;;;;;;;;;5054267;28;20400;-22
2023/07/31 12:59:14;;;;;;;;;;;;;;;;;;5057663;28;19982;-21
2023/07/31 13:01:40;;;;;;;;;;;;;;;;;;5057588;28;19917;-21
2023/07/31 13:04:08;;;;;;;;;;;;;;;;;;5036498;28;20010;-20
2023/07/31 13:06:34;;;;;;;;;;;;;;;;;;5038165;28;19913;-22
2023/07/31 13:09:00;;;;;;;;;;;;;;;;;;5037853;28;20386;-21
2023/07/31 13:11:26;;;;;;;;;;;;;;;;;;5037782;28;19909;-20
2023/07/31 13:13:52;;;;;;;;;;;;;;;;;;5037503;28;19909;-21
2023/07/31 13:16:18;;;;;;;;;;;;;;;;;;5037845;28;20039;-22
2023/07/31 13:18:44;;;;;;;;;;;;;;;;;;5036621;28;20007;-21
2023/07/31 13:21:10;;;;;;;;;;;;;;;;;;5037850;28;19987;-21
2023/07/31 13:23:36;;;;;;;;;;;;;;;;;;5037938;28;19909;-20
2023/07/31 13:26:02;;;;;;;;;;;;;;;;;;5037655;28;19909;-22
2023/07/31 13:28:28;;;;;;;;;;;;;;;;;;5037485;28;19913;-22
2023/07/31 13:30:54;;;;;;;;;;;;;;;;;;5037850;28;20339;-22
2023/07/31 13:33:20;;;;;;;;;;;;;;;;;;5036259;28;19921;-22
2023/07/31 13:35:46;;;;;;;;;;;;;;;;;;5037397;28;19995;-20
2023/07/31 13:38:11;;;;;;;;;;;;;;;;;;5037403;28;19983;-21
2023/07/31 13:40:37;;;;;;;;;;;;;;;;;;5037027;28;19920;-23
2023/07/31 13:43:03;;;;;;;;;;;;;;;;;;5037066;28;19909;-23
2023/07/31 13:45:29;;;;;;;;;;;;;;;;;;5037565;28;19909;-21
2023/07/31 13:47:56;;;;;;;;;;;;;;;;;;5037133;28;20328;-21
2023/07/31 13:50:22;;;;;;;;;;;;;;;;;;5036946;28;19953;-20
2023/07/31 13:52:48;;;;;;;;;;;;;;;;;;5037158;28;19923;-21
2023/07/31 13:55:14;;;;;;;;;;;;;;;;;;5037145;28;19932;-21
2023/07/31 13:57:40;;;;;;;;;;;;;;;;;;5036958;28;19910;-22
2023/07/31 14:00:06;;;;;;;;;;;;;;;;;;5036880;28;19917;-21
2023/07/31 14:02:32;;;;;;;;;;;;;;;;;;5038919;28;19913;-20
2023/07/31 14:04:58;;;;;;;;;;;;;;;;;;5056625;28;19912;-22
2023/07/31 14:07:24;;;;;;;;;;;;;;;;;;5056358;28;20365;-23
2023/07/31 14:09:50;;;;;;;;;;;;;;;;;;5056858;28;20349;-22
2023/07/31 14:12:16;;;;;;;;;;;;;;;;;;5038679;28;20051;-20
2023/07/31 14:14:42;;;;;;;;;;;;;;;;;;5038595;28;19909;-21
2023/07/31 14:17:08;;;;;;;;;;;;;;;;;;5055985;28;20229;-23
2023/07/31 14:19:34;;;;;;;;;;;;;;;;;;5056287;28;19948;-23
2023/07/31 14:22:00;;;;;;;;;;;;;;;;;;5056431;28;20022;-21
2023/07/31 14:24:26;;;;;;;;;;;;;;;;;;5056240;28;20000;-21
2023/07/31 14:26:52;;;;;;;;;;;;;;;;;;5055859;28;19909;-22
2023/07/31 14:29:18;;;;;;;;;;;;;;;;;;5056161;28;19926;-24
2023/07/31 14:31:44;;;;;;;;;;;;;;;;;;5056350;28;19958;-19
2023/07/31 14:34:10;;;;;;;;;;;;;;;;;;5056549;28;20244;-21
2023/07/31 14:36:36;;;;;;;;;;;;;;;;;;5038703;28;19916;-20
2023/07/31 14:39:01;;;;;;;;;;;;;;;;;;5056186;28;19909;-21
2023/07/31 14:41:27;;;;;;;;;;;;;;;;;;5055987;28;19971;-21
2023/07/31 14:43:53;;;;;;;;;;;;;;;;;;5038141;28;19970;-21
2023/07/31 14:46:19;;;;;;;;;;;;;;;;;;5055751;28;20275;-20
2023/07/31 14:48:45;;;;;;;;;;;;;;;;;;5056050;28;19982;-20
2023/07/31 14:51:11;;;;;;;;;;;;;;;;;;5055776;28;19917;-21
2023/07/31 14:53:37;;;;;;;;;;;;;;;;;;5055759;28;19909;-20
2023/07/31 14:56:03;;;;;;;;;;;;;;;;;;5055698;28;19941;-21
2023/07/31 14:58:29;;;;;;;;;;;;;;;;;;5055503;28;19909;-20
2023/07/31 15:00:55;;;;;;;;;;;;;;;;;;5055452;28;20007;-21
2023/07/31 15:03:21;;;;;;;;;;;;;;;;;;5054994;28;19986;-23
2023/07/31 15:05:47;;;;;;;;;;;;;;;;;;5055043;28;19916;-21
2023/07/31 15:08:13;;;;;;;;;;;;;;;;;;5037349;28;20335;-21
2023/07/31 15:10:39;;;;;;;;;;;;;;;;;;5036992;28;19919;-20
2023/07/31 15:13:05;;;;;;;;;;;;;;;;;;5055328;28;20203;-21
2023/07/31 15:15:31;;;;;;;;;;;;;;;;;;5054366;28;19909;-21
2023/07/31 15:17:57;;;;;;;;;;;;;;;;;;5036647;28;19935;-31
2023/07/31 15:20:23;;;;;;;;;;;;;;;;;;5053787;28;19909;-21
2023/07/31 15:22:49;;;;;;;;;;;;;;;;;;5054723;28;19917;-19
2023/07/31 15:25:15;;;;;;;;;;;;;;;;;;5054295;28;19913;-20
2023/07/31 15:27:41;;;;;;;;;;;;;;;;;;5054268;28;19915;-22
2023/07/31 15:30:07;;;;;;;;;;;;;;;;;;5054386;28;19913;-21
2023/07/31 15:32:33;;;;;;;;;;;;;;;;;;5036475;28;20310;-20
2023/07/31 15:34:59;;;;;;;;;;;;;;;;;;5054795;28;19948;-20
2023/07/31 15:37:25;;;;;;;;;;;;;;;;;;5054881;28;19947;-22
2023/07/31 15:39:51;;;;;;;;;;;;;;;;;;5055006;28;20255;-22
2023/07/31 15:42:17;;;;;;;;;;;;;;;;;;5054842;28;19909;-21
2023/07/31 15:44:43;;;;;;;;;;;;;;;;;;5055082;28;19945;-21
2023/07/31 15:47:09;;;;;;;;;;;;;;;;;;5054872;28;20336;-20
2023/07/31 15:49:35;;;;;;;;;;;;;;;;;;5054777;28;19913;-20
2023/07/31 15:52:01;;;;;;;;;;;;;;;;;;5054647;28;19944;-21
2023/07/31 15:54:27;;;;;;;;;;;;;;;;;;5054700;28;19912;-21
2023/07/31 15:56:53;;;;;;;;;;;;;;;;;;5036985;28;20023;-24
2023/07/31 15:59:19;;;;;;;;;;;;;;;;;;5036895;28;19955;-22
2023/07/31 16:01:45;;;;;;;;;;;;;;;;;;5054427;28;19958;-21
2023/07/31 16:04:11;;;;;;;;;;;;;;;;;;5054274;28;19932;-22
2023/07/31 16:06:37;;;;;;;;;;;;;;;;;;5054312;28;20332;-21
2023/07/31 16:09:03;;;;;;;;;;;;;;;;;;5054546;28;20015;-21
2023/07/31 16:11:29;;;;;;;;;;;;;;;;;;5054302;28;19909;-20
2023/07/31 16:13:55;;;;;;;;;;;;;;;;;;5054099;28;19916;-20
2023/07/31 16:16:21;;;;;;;;;;;;;;;;;;5054175;28;19959;-21
2023/07/31 16:18:47;;;;;;;;;;;;;;;;;;5053920;28;19925;-21
2023/07/31 16:21:13;;;;;;;;;;;;;;;;;;5054229;28;19913;-21
2023/07/31 16:23:39;;;;;;;;;;;;;;;;;;5053976;28;19919;-20
2023/07/31 16:26:05;;;;;;;;;;;;;;;;;;5054252;28;20375;-21
2023/07/31 16:28:31;;;;;;;;;;;;;;;;;;5053800;28;19931;-20
2023/07/31 16:30:57;;;;;;;;;;;;;;;;;;5056020;28;19944;-21
2023/07/31 16:33:22;;;;;;;;;;;;;;;;;;5060847;28;19912;-21
2023/07/31 16:35:48;;;;;;;;;;;;;;;;;;5060620;28;20212;-20
2023/07/31 16:38:14;;;;;;;;;;;;;;;;;;5060952;28;19999;-21
2023/07/31 16:40:40;;;;;;;;;;;;;;;;;;5060999;28;19909;-23